Time;durP1;ratioP1;P1;durP2;ratioP2;P2;SDS_P1;SDS_P2;PMS_P1;PMS_P2;Temp;Humidity;BMP_temperature;BMP_pressure;BME280_temperature;BME280_humidity;BME280_pressure;Samples;Min_cycle;Max_cycle;Signal;HPM_P1;HPM_P2
2021/12/07 00:01:14;;;;;;;;;;;;;;;;;;5047798;28;19920;-64
2021/12/07 00:03:40;;;;;;;;;;;;;;;;;;5047366;28;19954;-65
2021/12/07 00:06:06;;;;;;;;;;;;;;;;;;5048726;28;19917;-65
2021/12/07 00:08:32;;;;;;;;;;;;;;;;;;5049001;28;19916;-64
2021/12/07 00:10:58;;;;;;;;;;;;;;;;;;5049148;28;19909;-64
2021/12/07 00:13:29;;;;;;;;;;;;;;;;;;5049024;28;20369;-65
2021/12/07 00:15:54;;;;;;;;;;;;;;;;;;5048886;28;19916;-65
2021/12/07 00:18:20;;;;;;;;;;;;;;;;;;5049189;28;20003;-64
2021/12/07 00:20:46;;;;;;;;;;;;;;;;;;5048789;28;20070;-64
2021/12/07 00:23:12;;;;;;;;;;;;;;;;;;5050638;28;19946;-65
2021/12/07 00:25:38;;;;;;;;;;;;;;;;;;5060064;28;19932;-65
2021/12/07 00:28:04;;;;;;;;;;;;;;;;;;5071426;28;20331;-66
2021/12/07 00:33:12;;;;;;;;;;;;;;;;;;5112596;22;19927;-65
2021/12/07 00:35:38;;;;;;;;;;;;;;;;;;5092257;28;19904;-65
2021/12/07 00:38:04;;;;;;;;;;;;;;;;;;5092079;28;19945;-64
2021/12/07 00:40:30;;;;;;;;;;;;;;;;;;5093027;28;19904;-66
2021/12/07 00:42:56;;;;;;;;;;;;;;;;;;5091811;28;19900;-66
2021/12/07 00:45:22;;;;;;;;;;;;;;;;;;5091669;28;19950;-65
2021/12/07 00:47:48;;;;;;;;;;;;;;;;;;5091749;28;20355;-65
2021/12/07 00:50:14;;;;;;;;;;;;;;;;;;5091929;28;19900;-65
2021/12/07 00:52:40;;;;;;;;;;;;;;;;;;5092678;28;19930;-65
2021/12/07 00:55:06;;;;;;;;;;;;;;;;;;5093035;28;19901;-65
2021/12/07 00:57:32;;;;;;;;;;;;;;;;;;5092932;28;19957;-65
2021/12/07 00:59:58;;;;;;;;;;;;;;;;;;5092941;28;19915;-65
2021/12/07 01:02:23;;;;;;;;;;;;;;;;;;5092616;28;19910;-66
2021/12/07 01:04:58;;;;;;;;;;;;;;;;;;5094948;28;19912;-66
2021/12/07 01:07:50;;;;;;;;;;;;;;;;;;5100324;28;19968;-66
2021/12/07 01:26:37;;;;;;;;;;;;;;;;;;5097156;28;19915;-65
2021/12/07 01:29:03;;;;;;;;;;;;;;;;;;5096784;28;20355;-64
2021/12/07 01:31:51;;;;;;;;;;;;;;;;;;5095592;28;19916;-64
2021/12/07 02:00:11;;;;;;;;;;;;;;;;;;5097573;28;19904;-65
2021/12/07 02:02:37;;;;;;;;;;;;;;;;;;5096706;28;19915;-66
2021/12/07 02:05:03;;;;;;;;;;;;;;;;;;5096831;28;19908;-65
2021/12/07 02:07:29;;;;;;;;;;;;;;;;;;5095002;28;19925;-65
2021/12/07 02:10:04;;;;;;;;;;;;;;;;;;5096099;28;20336;-65
2021/12/07 02:12:32;;;;;;;;;;;;;;;;;;5097203;28;20024;-66
2021/12/07 02:14:58;;;;;;;;;;;;;;;;;;5094748;28;19904;-66
2021/12/07 02:17:26;;;;;;;;;;;;;;;;;;5096046;28;19911;-66
2021/12/07 02:19:52;;;;;;;;;;;;;;;;;;5094655;28;19904;-65
2021/12/07 02:22:18;;;;;;;;;;;;;;;;;;5095731;28;19966;-65
2021/12/07 02:24:44;;;;;;;;;;;;;;;;;;5095932;28;19908;-66
2021/12/07 02:27:10;;;;;;;;;;;;;;;;;;5095513;28;19927;-65
2021/12/07 02:29:36;;;;;;;;;;;;;;;;;;5094304;28;20379;-65
2021/12/07 02:32:03;;;;;;;;;;;;;;;;;;5095125;28;19912;-64
2021/12/07 02:34:29;;;;;;;;;;;;;;;;;;5094216;28;19953;-67
2021/12/07 02:36:55;;;;;;;;;;;;;;;;;;5095449;28;19999;-65
2021/12/07 02:39:21;;;;;;;;;;;;;;;;;;5094133;28;19925;-65
2021/12/07 02:41:47;;;;;;;;;;;;;;;;;;5094998;28;19959;-65
2021/12/07 02:44:13;;;;;;;;;;;;;;;;;;5093965;28;20275;-65
2021/12/07 02:46:39;;;;;;;;;;;;;;;;;;5094165;28;19949;-65
2021/12/07 02:49:05;;;;;;;;;;;;;;;;;;5095075;28;20313;-65
2021/12/07 02:51:31;;;;;;;;;;;;;;;;;;5095233;28;19943;-65
2021/12/07 02:53:57;;;;;;;;;;;;;;;;;;5095074;28;20359;-65
2021/12/07 02:56:23;;;;;;;;;;;;;;;;;;5095088;28;19905;-65
2021/12/07 02:58:49;;;;;;;;;;;;;;;;;;5093875;28;19904;-65
2021/12/07 03:01:23;;;;;;;;;;;;;;;;;;5093783;28;19930;-64
2021/12/07 03:04:13;;;;;;;;;;;;;;;;;;5093445;28;19939;-65
2021/12/07 03:06:44;;;;;;;;;;;;;;;;;;5094969;28;20007;-65
2021/12/07 03:28:04;;;;;;;;;;;;;;;;;;5094672;28;19911;-64
2021/12/07 03:30:30;;;;;;;;;;;2.30;99.90;;;;;;5093849;28;19904;-65
2021/12/07 03:32:56;;;;;;;;;;;;;;;;;;5092835;28;19959;-65
2021/12/07 03:35:22;;;;;;;;;;;;;;;;;;5093306;28;19904;-64
2021/12/07 03:37:47;;;;;;;;;;;;;;;;;;5094288;28;20435;-65
2021/12/07 03:40:13;;;;;;;;;;;;;;;;;;5092917;28;19904;-64
2021/12/07 03:42:39;;;;;;;;;;;;;;;;;;5092651;28;19943;-65
2021/12/07 03:45:05;;;;;;;;;;;;;;;;;;5093053;28;19911;-65
2021/12/07 03:47:31;;;;;;;;;;;;;;;;;;5093094;28;19969;-64
2021/12/07 03:49:57;;;;;;;;;;;;;;;;;;5092719;28;19911;-65
2021/12/07 03:52:23;;;;;;;;;;;;;;;;;;5094019;28;19904;-66
2021/12/07 03:54:49;;;;;;;;;;;;;;;;;;5093071;28;19900;-65
2021/12/07 03:57:15;;;;;;;;;;;;;;;;;;5092717;28;20287;-65
2021/12/07 03:59:41;;;;;;;;;;;;;;;;;;5094262;28;20248;-64
2021/12/07 04:02:07;;;;;;;;;;;;;;;;;;5092621;28;19915;-64
2021/12/07 04:04:33;;;;;;;;;;;;;;;;;;5093006;28;20509;-64
2021/12/07 04:06:59;;;;;;;;;;;;;;;;;;5093279;28;19910;-66
2021/12/07 04:09:25;;;;;;;;;;;;;;;;;;5092481;28;20344;-65
2021/12/07 04:11:51;;;;;;;;;;;;;;;;;;5093429;28;19947;-65
2021/12/07 04:14:17;;;;;;;;;;;;;;;;;;5094275;28;19915;-63
2021/12/07 04:16:43;;;;;;;;;;;;;;;;;;5092870;28;19954;-64
2021/12/07 04:19:08;;;;;;;;;;;;;;;;;;5092804;28;19904;-65
2021/12/07 04:21:34;;;;;;;;;;;;;;;;;;5093902;28;19904;-63
2021/12/07 04:24:00;;;;;;;;;;;;;;;;;;5094111;28;19975;-65
2021/12/07 04:26:26;;;;;;;;;;;;;;;;;;5092425;28;19908;-64
2021/12/07 04:28:52;;;;;;;;;;;;;;;;;;5093530;28;19904;-65
2021/12/07 04:31:20;;;;;;;;;;;;;;;;;;5093217;28;19914;-65
2021/12/07 04:33:45;;;;;;;;;;;;;;;;;;5093848;28;20378;-64
2021/12/07 04:36:11;;;;;;;;;;;;;;;;;;5092502;28;19904;-65
2021/12/07 04:38:37;;;;;;;;;;;;;;;;;;5093387;28;19973;-64
2021/12/07 04:41:03;;;;;;;;;;;;;;;;;;5092067;28;19911;-64
2021/12/07 04:43:29;;;;;;;;;;;;;;;;;;5093110;28;19957;-65
2021/12/07 04:46:08;;;;;;;;;;;;;;;;;;;;;
2021/12/07 04:59:10;;;;;;;;;;;;;;;;;;5093308;28;19923;-64
2021/12/07 05:01:36;;;;;;;;;;;;;;;;;;5091535;28;19904;-64
2021/12/07 05:04:08;;;;;;;;;;;;;;;;;;5091928;28;19904;-65
2021/12/07 05:06:40;;;;;;;;;;;;;;;;;;5091749;28;19908;-64
2021/12/07 05:10:11;;;;;;;;;;;;;;;;;;5091894;28;19910;-64
2021/12/07 05:14:28;;;;;;;;;;;;;;;;;;5093326;28;20324;-64
2021/12/07 05:38:19;;;;;;;;;;;;;;;;;;5092566;28;19915;-65
2021/12/07 05:40:45;;;;;;;;;;;;;;;;;;5092457;28;19904;-64
2021/12/07 05:43:11;;;;;;;;;;;;;;;;;;5092407;28;19904;-65
2021/12/07 05:45:37;;;;;;;;;;;;;;;;;;5091017;28;19919;-66
2021/12/07 05:48:03;;;;;;;;;;;;;;;;;;5091482;28;19904;-64
2021/12/07 05:50:29;;;;;;;;;;;;;;;;;;5092291;28;19961;-65
2021/12/07 05:52:54;;;;;;;;;;;;;;;;;;5095925;28;20415;-66
2021/12/07 05:55:20;;;;;;;;;;;;;;;;;;5094821;28;19904;-63
2021/12/07 05:57:46;;;;;;;;;;;;;;;;;;5096141;28;20375;-64
2021/12/07 06:00:12;;;;;;;;;;;;;;;;;;5096323;28;19930;-64
2021/12/07 06:02:38;;;;;;;;;;;;;;;;;;5095565;28;19904;-64
2021/12/07 06:05:04;;;;;;;;;;;;;;;;;;5094492;28;19912;-64
2021/12/07 06:07:30;;;;;;;;;;;;;;;;;;5094804;28;19918;-63
2021/12/07 06:09:56;;;;;;;;;;;;;;;;;;5094411;28;20444;-64
2021/12/07 06:12:21;;;;;;;;;;;;;;;;;;5095850;28;20003;-63
2021/12/07 06:14:47;;;;;;;;;;;;;;;;;;5095805;28;19927;-64
2021/12/07 06:17:13;;;;;;;;;;;;;;;;;;5094565;28;20015;-64
2021/12/07 06:19:39;;;;;;;;;;;;;;;;;;5094549;28;19900;-64
2021/12/07 06:22:06;;;;;;;;;;;;;;;;;;5094058;28;19904;-63
2021/12/07 06:24:32;;;;;;;;;;;;;;;;;;5095514;28;19900;-64
2021/12/07 06:26:58;;;;;;;;;;;;;;;;;;5094154;28;19904;-65
2021/12/07 06:29:24;;;;;;;;;;;;;;;;;;5094165;28;19904;-63
2021/12/07 06:31:49;;;;;;;;;;;;;;;;;;5113502;22;20363;-65
2021/12/07 06:34:15;;;;;;;;;;;;;;;;;;5093786;28;19953;-65
2021/12/07 06:36:44;;;;;;;;;;;;;;;;;;5093579;28;20372;-65
2021/12/07 06:39:10;;;;;;;;;;;;;;;;;;5092220;28;19911;-65
2021/12/07 06:41:36;;;;;;;;;;;;;;;;;;5093424;28;19949;-65
2021/12/07 06:44:02;;;;;;;;;;;;;;;;;;5093985;28;19998;-65
2021/12/07 06:46:28;;;;;;;;;;;;;;;;;;5093181;28;20004;-65
2021/12/07 06:48:54;;;;;;;;;;;;;;;;;;5093438;28;19904;-66
2021/12/07 06:51:20;;;;;;;;;;;;;;;;;;5092140;28;19904;-66
2021/12/07 06:53:45;;;;;;;;;;;;;;;;;;5091769;28;20001;-61
2021/12/07 06:56:11;;;;;;;;;;;;;;;;;;5093290;28;19904;-64
2021/12/07 06:58:37;;;;;;;;;;;;;;;;;;5093484;28;19908;-64
2021/12/07 07:01:03;;;;;;;;;;;;;;;;;;5093465;28;19984;-64
2021/12/07 07:03:29;;;;;;;;;;;;;;;;;;5090502;28;19911;-64
2021/12/07 07:05:55;;;;;;;;;;;;;;;;;;5092145;28;19912;-65
2021/12/07 07:08:21;;;;;;;;;;;;;;;;;;5091719;28;19951;-65
2021/12/07 07:10:47;;;;;;;;;;;;;;;;;;5093373;28;19973;-64
2021/12/07 07:13:13;;;;;;;;;;;;;;;;;;5091927;28;19930;-64
2021/12/07 07:15:39;;;;;;;;;;;;;;;;;;5093616;28;19912;-65
2021/12/07 07:18:04;;;;;;;;;;;;;;;;;;5092052;28;19953;-65
2021/12/07 07:20:30;;;;;;;;;;;;;;;;;;5092058;28;20327;-65
2021/12/07 07:22:56;;;;;;;;;;;;;;;;;;5086279;28;19952;-66
2021/12/07 07:25:22;;;;;;;;;;;;;;;;;;5084510;28;19908;-65
2021/12/07 07:27:48;;;;;;;;;;;;;;;;;;5091250;28;19915;-64
2021/12/07 07:30:14;;;;;;;;;;;;;;;;;;5092515;28;20019;-64
2021/12/07 07:32:40;;;;;;;;;;;;;;;;;;5092165;28;19977;-64
2021/12/07 07:35:06;;;;;;;;;;;;;;;;;;5091365;28;20000;-63
2021/12/07 07:37:31;;;;;;;;;;;;;;;;;;5092608;28;20318;-64
2021/12/07 07:39:57;;;;;;;;;;;;;;;;;;5079674;28;19916;-64
2021/12/07 07:42:23;;;;;;;;;;;;;;;;;;5070497;28;19905;-64
2021/12/07 07:44:49;;;;;;;;;;;;;;;;;;5072037;28;19908;-64
2021/12/07 07:47:15;;;;;;;;;;;;;;;;;;5072012;28;19908;-64
2021/12/07 07:49:41;;;;;;;;;;;;;;;;;;5070582;28;19951;-64
2021/12/07 07:52:07;;;;;;;;;;;;;;;;;;5071597;28;19959;-64
2021/12/07 07:54:33;;;;;;;;;;;;;;;;;;5071755;28;19935;-65
2021/12/07 07:56:59;;;;;;;;;;;;;;;;;;5084277;28;19904;-66
2021/12/07 07:59:25;;;;;;;;;;;;;;;;;;5092169;28;19904;-66
2021/12/07 08:01:51;;;;;;;;;;;;;;;;;;5091887;28;19904;-64
2021/12/07 08:04:16;;;;;;;;;;;;;;;;;;5092258;28;19938;-65
2021/12/07 08:06:42;;;;;;;;;;;;;;;;;;5092001;28;19907;-65
2021/12/07 08:09:08;;;;;;;;;;;;;;;;;;5092118;28;19911;-64
2021/12/07 08:11:34;;;;;;;;;;;;;;;;;;5091868;28;19995;-64
2021/12/07 08:14:00;;;;;;;;;;;;;;;;;;5092517;28;19904;-66
2021/12/07 08:16:26;;;;;;;;;;;;;;;;;;5090962;28;19900;-64
2021/12/07 08:18:52;;;;;;;;;;;;;;;;;;5091934;28;19915;-65
2021/12/07 08:21:18;;;;;;;;;;;;;;;;;;5090481;28;19935;-64
2021/12/07 08:23:44;;;;;;;;;;;;;;;;;;5090417;28;19978;-65
2021/12/07 08:26:09;;;;;;;;;;;;;;;;;;5090626;28;19914;-66
2021/12/07 08:28:35;;;;;;;;;;;;;;;;;;5090509;28;19908;-68
2021/12/07 08:31:01;;;;;;;;;;;;;;;;;;5090299;28;20311;-67
2021/12/07 08:33:27;;;;;;;;;;;;;;;;;;5089801;28;19919;-67
2021/12/07 08:35:53;;;;;;;;;;;;;;;;;;5091865;28;19904;-70
2021/12/07 08:38:19;;;;;;;;;;;;;;;;;;5090550;28;19961;-70
2021/12/07 08:40:46;;;;;;;;;;;;;;;;;;5092047;28;19908;-68
2021/12/07 08:43:12;;;;;;;;;;;;;;;;;;5090019;28;19907;-69
2021/12/07 08:45:38;;;;;;;;;;;;;;;;;;5090292;28;19908;-68
2021/12/07 08:48:04;;;;;;;;;;;;;;;;;;5090349;28;20268;-69
2021/12/07 08:50:30;;;;;;;;;;;;;;;;;;5090690;28;19950;-69
2021/12/07 08:52:57;;;;;;;;;;;;;;;;;;5091628;28;19914;-69
2021/12/07 09:00:53;;;;;;;;;;;;;;;;;;5091648;28;20038;-69
2021/12/07 09:03:18;;;;;;;;;;;;;;;;;;5091231;28;19904;-70
2021/12/07 09:05:44;;;;;;;;;;;;;;;;;;5087027;28;19908;-69
2021/12/07 09:08:10;;;;;;;;;;;;;;;;;;5090245;28;20364;-68
2021/12/07 09:10:36;;;;;;;;;;;;;;;;;;5091792;28;19904;-68
2021/12/07 09:13:02;;;;;;;;;;;;;;;;;;5091379;28;19904;-68
2021/12/07 09:15:28;;;;;;;;;;;;;;;;;;5091554;28;19904;-68
2021/12/07 09:17:54;;;;;;;;;;;;;;;;;;5091517;28;19915;-70
2021/12/07 09:20:20;;;;;;;;;;;;;;;;;;5090354;28;19944;-69
2021/12/07 09:22:45;;;;;;;;;;;;;;;;;;5090043;28;19931;-70
2021/12/07 09:25:11;;;;;;;;;;;;;;;;;;5092304;28;19908;-70
2021/12/07 09:27:37;;;;;;;;;;;;;;;;;;5095654;28;20364;-70
2021/12/07 09:30:03;;;;;;;;;;;;;;;;;;5094184;28;19904;-69
2021/12/07 09:32:29;;;;;;;;;;;;;;;;;;5095378;28;20261;-69
2021/12/07 09:34:55;;;;;;;;;;;;;;;;;;5095680;28;19908;-69
2021/12/07 09:37:21;;;;;;;;;;;;;;;;;;5093282;28;19915;-70
2021/12/07 09:39:47;;;;;;;;;;;;;;;;;;5095118;28;19994;-68
2021/12/07 09:42:13;;;;;;;;;;;;;;;;;;5094622;28;19932;-67
2021/12/07 09:44:39;;;;;;;;;;;;;;;;;;5093360;28;20051;-67
2021/12/07 09:47:05;;;;;;;;;;;;;;;;;;5094095;28;19904;-66
2021/12/07 09:49:31;;;;;;;;;;;;;;;;;;5093240;28;19930;-67
2021/12/07 09:51:57;;;;;;;;;;;;;;;;;;5093410;28;19952;-67
2021/12/07 09:54:23;;;;;;;;;;;;;;;;;;5093689;28;20359;-67
2021/12/07 09:56:49;;;;;;;;;;;;;;;;;;5094729;28;19926;-66
2021/12/07 09:59:15;;;;;;;;;;;;;;;;;;5093145;28;20407;-67
2021/12/07 10:01:41;;;;;;;;;;;;;;;;;;5094259;28;19904;-68
2021/12/07 10:04:07;;;;;;;;;;;;;;;;;;5095536;28;19904;-66
2021/12/07 10:06:33;;;;;;;;;;;;;;;;;;5094732;28;19915;-67
2021/12/07 10:08:59;;;;;;;;;;;;;;;;;;5094560;28;19991;-67
2021/12/07 10:11:25;;;;;;;;;;;;;;;;;;5092863;28;20355;-67
2021/12/07 10:13:51;;;;;;;;;;;;;;;;;;5094381;28;19904;-67
2021/12/07 10:16:17;;;;;;;;;;;;;;;;;;5094079;28;19904;-67
2021/12/07 10:18:43;;;;;;;;;;;;;;;;;;5094230;28;19904;-67
2021/12/07 10:21:10;;;;;;;;;;;;;;;;;;5092627;28;20328;-67
2021/12/07 10:23:37;;;;;;;;;;;;;;;;;;5093958;28;19904;-67
2021/12/07 10:26:03;;;;;;;;;;;;;;;;;;5094199;28;19908;-66
2021/12/07 10:28:29;;;;;;;;;;;;;;;;;;5093002;28;19904;-68
2021/12/07 10:30:55;;;;;;;;;;;;;;;;;;5092912;28;19908;-67
2021/12/07 10:33:21;;;;;;;;;;;;;;;;;;5093815;28;20406;-67
2021/12/07 10:35:47;;;;;;;;;;;;;;;;;;5094149;28;19904;-67
2021/12/07 10:38:13;;;;;;;;;;;;;;;;;;5091857;28;19903;-67
2021/12/07 10:40:39;;;;;;;;;;;;;;;;;;5092816;28;19904;-67
2021/12/07 10:43:05;;;;;;;;;;;;;;;;;;5093851;28;19927;-67
2021/12/07 10:45:31;;;;;;;;;;;;;;;;;;5092163;28;19915;-67
2021/12/07 10:47:58;;;;;;;;;;;;;;;;;;5092586;28;19904;-67
2021/12/07 10:50:24;;;;;;;;;;;;;;;;;;5092518;28;20283;-66
2021/12/07 10:52:50;;;;;;;;;;;;;;;;;;5093194;28;19911;-67
2021/12/07 10:55:16;;;;;;;;;;;;;;;;;;5092389;28;19995;-66
2021/12/07 10:57:41;;;;;;;;;;;;;;;;;;5091910;28;19981;-67
2021/12/07 11:00:07;;;;;;;;;;;;;;;;;;5093568;28;19939;-67
2021/12/07 11:02:35;;;;;;;;;;;;;;;;;;5093155;28;19900;-67
2021/12/07 11:05:03;;;;;;;;;;;2.70;99.90;;;;;;5093274;28;19908;-66
2021/12/07 11:07:30;;;;;;;;;;;4.70;99.90;;;;;;5093233;28;19954;-66
2021/12/07 11:10:07;;;;;;;;;;;4.80;99.90;;;;;;5093115;28;19908;-66
2021/12/07 11:12:39;;;;;;;;;;;4.80;99.90;;;;;;5091282;28;19904;-66
2021/12/07 11:15:12;;;;;;;;;;;4.80;99.90;;;;;;5097751;28;19916;-65
2021/12/07 11:17:38;;;;;;;;;;;4.80;99.90;;;;;;5096358;28;19966;-66
2021/12/07 11:20:05;;;;;;;;;;;4.90;99.90;;;;;;5091465;28;19904;-66
2021/12/07 11:22:31;;;;;;;;;;;;;;;;;;5092607;28;19904;-68
2021/12/07 11:24:57;;;;;;;;;;;;;;;;;;5092684;28;19953;-67
2021/12/07 11:30:07;;;;;;;;;;;;;;;;;;5091999;28;20386;-67
2021/12/07 11:32:33;;;;;;;;;;;;;;;;;;5092227;28;19912;-66
2021/12/07 11:34:59;;;;;;;;;;;;;;;;;;5092744;28;19900;-66
2021/12/07 11:37:25;;;;;;;;;;;;;;;;;;5092087;28;19904;-67
2021/12/07 11:39:52;;;;;;;;;;;;;;;;;;5092288;28;19908;-67
2021/12/07 11:42:18;;;;;;;;;;;;;;;;;;5091877;28;19912;-66
2021/12/07 11:44:43;;;;;;;;;;;;;;;;;;5092140;28;20261;-67
2021/12/07 11:47:09;;;;;;;;;;;;;;;;;;5091292;28;19973;-66
2021/12/07 11:49:37;;;;;;;;;;;;;;;;;;5091906;28;20363;-66
2021/12/07 11:52:02;;;;;;;;;;;;;;;;;;5090860;28;19904;-67
2021/12/07 11:54:28;;;;;;;;;;;;;;;;;;5092512;28;20381;-67
2021/12/07 11:56:54;;;;;;;;;;;;;;;;;;5091065;28;19908;-68
2021/12/07 11:59:20;;;;;;;;;;;;;;;;;;5090904;28;19911;-67
2021/12/07 12:01:46;;;;;;;;;;;;;;;;;;5090225;28;19939;-67
2021/12/07 12:04:12;;;;;;;;;;;;;;;;;;5090795;28;20278;-67
2021/12/07 12:06:38;;;;;;;;;;;;;;;;;;5091947;28;20404;-67
2021/12/07 12:09:04;;;;;;;;;;;;;;;;;;5090463;28;20011;-66
2021/12/07 12:11:29;;;;;;;;;;;;;;;;;;5091756;28;19934;-66
2021/12/07 12:13:56;;;;;;;;;;;;;;;;;;5091351;28;20351;-69
2021/12/07 12:16:22;;;;;;;;;;;;;;;;;;5092054;28;19915;-67
2021/12/07 12:18:48;;;;;;;;;;;;;;;;;;5091890;28;19904;-66
2021/12/07 12:21:14;;;;;;;;;;;;;;;;;;5091538;28;19947;-67
2021/12/07 12:23:40;;;;;;;;;;;;;;;;;;5090644;28;19904;-67
2021/12/07 12:26:06;;;;;;;;;;;;;;;;;;5091488;28;19973;-67
2021/12/07 12:28:33;;;;;;;;;;;;;;;;;;5091923;28;20417;-65
2021/12/07 12:30:59;;;;;;;;;;;;;;;;;;5091754;28;19904;-65
2021/12/07 12:33:25;;;;;;;;;;;;;;;;;;5090168;28;19916;-67
2021/12/07 12:35:51;;;;;;;;;;;;;;;;;;5090318;28;19912;-66
2021/12/07 12:38:16;;;;;;;;;;;;;;;;;;5097475;22;19940;-67
2021/12/07 12:40:42;;;;;;;;;;;;;;;;;;5052687;28;20335;-66
2021/12/07 12:43:08;;;;;;;;;;;;;;;;;;5052184;28;19905;-65
2021/12/07 12:45:36;;;;;;;;;;;;;;;;;;5067375;28;19943;-66
2021/12/07 12:48:02;;;;;;;;;;;;;;;;;;5052565;28;19905;-67
2021/12/07 12:50:28;;;;;;;;;;;;;;;;;;5052098;28;19954;-65
2021/12/07 12:52:53;;;;;;;;;;;;;;;;;;5051674;28;19905;-66
2021/12/07 12:55:19;;;;;;;;;;;;;;;;;;5052298;28;19989;-66
2021/12/07 12:57:45;;;;;;;;;;;;;;;;;;5052967;28;20010;-67
2021/12/07 13:00:11;;;;;;;;;;;;;;;;;;5052454;28;19995;-65
2021/12/07 13:02:37;;;;;;;;;;;;;;;;;;5052754;28;19963;-66
2021/12/07 13:05:04;;;;;;;;;;;;;;;;;;5051987;28;19913;-67
2021/12/07 13:07:30;;;;;;;;;;;;;;;;;;5052826;28;19905;-66
2021/12/07 13:09:56;;;;;;;;;;;;;;;;;;5052668;28;20037;-67
2021/12/07 13:12:22;;;;;;;;;;;;;;;;;;5052547;28;19911;-67
2021/12/07 13:14:48;;;;;;;;;;;;;;;;;;5054152;28;19904;-67
2021/12/07 13:17:14;;;;;;;;;;;;;;;;;;5052288;28;19991;-65
2021/12/07 13:19:40;;;;;;;;;;;;;;;;;;5052747;28;19931;-66
2021/12/07 13:22:06;;;;;;;;;;;;;;;;;;5051421;28;19909;-66
2021/12/07 13:24:32;;;;;;;;;;;;;;;;;;5048382;28;19909;-65
2021/12/07 13:26:58;;;;;;;;;;;;;;;;;;5044480;28;19951;-66
2021/12/07 13:29:23;;;;;;;;;;;;;;;;;;5052861;28;19905;-66
2021/12/07 13:31:51;;;;;;;;;;;;;;;;;;5052537;28;19905;-66
2021/12/07 13:34:17;;;;;;;;;;;;;;;;;;4701338;28;10000472;-66
2021/12/07 13:36:43;;;;;;;;;;;;;;;;;;5035203;28;20625;-66
2021/12/07 13:39:09;;;;;;;;;;;;;;;;;;5028874;28;19963;-66
2021/12/07 13:41:35;;;;;;;;;;;;;;;;;;5030399;28;19947;-66
2021/12/07 13:44:00;;;;;;;;;;;;;;;;;;5029500;28;20451;-68
2021/12/07 13:46:26;;;;;;;;;;;;;;;;;;5029697;28;20448;-68
2021/12/07 13:48:52;;;;;;;;;;;;;;;;;;5028677;28;19917;-67
2021/12/07 13:51:18;;;;;;;;;;;;;;;;;;5029314;28;20119;-68
2021/12/07 13:53:44;;;;;;;;;;;;;;;;;;5028237;28;19905;-68
2021/12/07 13:56:10;;;;;;;;;;;;;;;;;;5028680;28;19936;-67
2021/12/07 13:58:36;;;;;;;;;;;;;;;;;;5028616;28;20368;-68
2021/12/07 14:01:02;;;;;;;;;;;;;;;;;;5028897;28;19956;-66
2021/12/07 14:03:28;;;;;;;;;;;;;;;;;;5028030;28;19959;-68
2021/12/07 14:05:54;;;;;;;;;;;;;;;;;;5029525;28;20618;-66
2021/12/07 14:08:20;;;;;;;;;;;;;;;;;;5028180;28;19905;-67
2021/12/07 14:10:45;;;;;;;;;;;;;;;;;;5030596;28;19909;-66
2021/12/07 14:13:11;;;;;;;;;;;;;;;;;;5031824;28;19988;-67
2021/12/07 14:15:37;;;;;;;;;;;;;;;;;;5032027;28;19916;-67
2021/12/07 14:18:03;;;;;;;;;;;;;;;;;;5031680;28;20423;-66
2021/12/07 14:20:29;;;;;;;;;;;;;;;;;;5039905;28;19915;-66
2021/12/07 14:22:55;;;;;;;;;;;;;;;;;;5052402;28;19913;-67
2021/12/07 14:25:21;;;;;;;;;;;;;;;;;;5033868;28;19909;-67
2021/12/07 14:27:47;;;;;;;;;;;;;;;;;;5033841;28;19909;-67
2021/12/07 14:30:13;;;;;;;;;;;;;;;;;;5035224;28;19959;-67
2021/12/07 14:32:38;;;;;;;;;;;;;;;;;;5033609;28;19905;-68
2021/12/07 14:35:04;;;;;;;;;;;;;;;;;;5035271;28;19909;-67
2021/12/07 14:37:30;;;;;;;;;;;;;;;;;;5046367;28;20333;-67
2021/12/07 14:39:56;;;;;;;;;;;;;;;;;;5070508;28;19905;-67
2021/12/07 14:42:22;;;;;;;;;;;;;;;;;;5044998;28;20376;-67
2021/12/07 14:44:48;;;;;;;;;;;;;;;;;;5042008;28;19909;-68
2021/12/07 14:47:14;;;;;;;;;;;;;;;;;;5052849;28;20042;-68
2021/12/07 14:49:40;;;;;;;;;;;;;;;;;;5072686;28;19952;-66
2021/12/07 14:52:06;;;;;;;;;;;;;;;;;;5085473;28;19919;-66
2021/12/07 14:54:32;;;;;;;;;;;;;;;;;;5034873;28;19923;-68
2021/12/07 14:56:58;;;;;;;;;;;;;;;;;;5035535;28;20292;-67
2021/12/07 14:59:23;;;;;;;;;;;;;;;;;;5033241;28;19905;-67
2021/12/07 15:01:49;;;;;;;;;;;;;;;;;;5035279;28;20295;-67
2021/12/07 15:04:15;;;;;;;;;;;;;;;;;;5044803;28;19924;-68
2021/12/07 15:06:41;;;;;;;;;;;;;;;;;;5044126;28;19909;-67
2021/12/07 15:09:07;;;;;;;;;;;;;;;;;;5043477;28;19905;-67
2021/12/07 15:11:33;;;;;;;;;;;;;;;;;;5043732;28;19905;-65
2021/12/07 15:13:59;;;;;;;;;;;;;;;;;;5059557;28;19915;-67
2021/12/07 15:16:25;;;;;;;;;;;;;;;;;;5061263;28;19905;-68
2021/12/07 15:18:51;;;;;;;;;;;;;;;;;;5036628;28;20388;-67
2021/12/07 15:21:17;;;;;;;;;;;;;;;;;;5033835;28;19995;-67
2021/12/07 15:23:43;;;;;;;;;;;;;;;;;;5053949;28;20376;-68
2021/12/07 15:26:09;;;;;;;;;;;;;;;;;;5043185;28;19916;-68
2021/12/07 15:28:34;;;;;;;;;;;;;;;;;;5053521;28;19931;-68
2021/12/07 15:31:00;;;;;;;;;;;;;;;;;;5054929;28;19905;-69
2021/12/07 15:33:26;;;;;;;;;;;;;;;;;;5053927;28;20435;-67
2021/12/07 15:35:52;;;;;;;;;;;;;;;;;;5054568;28;19945;-68
2021/12/07 15:38:18;;;;;;;;;;;;;;;;;;5047822;28;20364;-68
2021/12/07 15:40:45;;;;;;;;;;;;;;;;;;5039299;28;19909;-67
2021/12/07 15:43:11;;;;;;;;;;;;;;;;;;5042706;28;19913;-67
2021/12/07 15:45:38;;;;;;;;;;;;;;;;;;5034247;28;19934;-68
2021/12/07 15:48:04;;;;;;;;;;;;;;;;;;5035148;28;20306;-68
2021/12/07 15:50:30;;;;;;;;;;;;;;;;;;5053787;28;19909;-67
2021/12/07 15:52:57;;;;;;;;;;;;;;;;;;5052374;28;19917;-67
2021/12/07 15:55:25;;;;;;;;;;;;;;;;;;5052916;28;19951;-67
2021/12/07 15:57:51;;;;;;;;;;;;;;;;;;5053336;28;19915;-68
2021/12/07 16:00:17;;;;;;;;;;;;;;;;;;5053820;28;19904;-67
2021/12/07 16:02:43;;;;;;;;;;;;;;;;;;4353597;28;10000739;-68
2021/12/07 16:05:09;;;;;;;;;;;;;;;;;;5031074;28;20039;-68
2021/12/07 16:07:34;;;;;;;;;;;;;;;;;;5043944;28;20380;-70
2021/12/07 16:10:00;;;;;;;;;;;;;;;;;;5051677;28;19975;-69
2021/12/07 16:12:26;;;;;;;;;;;;;;;;;;5051555;28;19908;-72
2021/12/07 16:14:52;;;;;;;;;;;;;;;;;;5050606;28;19904;-68
2021/12/07 16:17:18;;;;;;;;;;;;;;;;;;5050609;28;19904;-68
2021/12/07 16:19:44;;;;;;;;;;;;;;;;;;5049869;28;20004;-69
2021/12/07 16:22:10;;;;;;;;;;;;;;;;;;5050351;28;19912;-68
2021/12/07 16:24:36;;;;;;;;;;;;;;;;;;5050573;28;19904;-68
2021/12/07 16:27:07;;;;;;;;;;;;;;;;;;5051927;28;19909;-67
2021/12/07 16:29:34;;;;;;;;;;;;;;;;;;5051904;28;20000;-68
2021/12/07 16:32:01;;;;;;;;;;;;;;;;;;5050292;28;19905;-68
2021/12/07 16:34:27;;;;;;;;;;;;;;;;;;5050267;28;19905;-70
2021/12/07 16:36:53;;;;;;;;;;;;;;;;;;5052857;28;20329;-68
2021/12/07 16:39:19;;;;;;;;;;;;;;;;;;5052691;28;19913;-68
2021/12/07 16:41:47;;;;;;;;;;;;;;;;;;5053681;28;19932;-68
2021/12/07 16:44:13;;;;;;;;;;;;;;;;;;5052115;28;19995;-69
2021/12/07 16:46:39;;;;;;;;;;;;;;;;;;5051993;28;19955;-69
2021/12/07 16:49:04;;;;;;;;;;;;;;;;;;5053600;28;19916;-68
2021/12/07 16:51:31;;;;;;;;;;;;;;;;;;5048776;28;19996;-68
2021/12/07 16:53:57;;;;;;;;;;;;;;;;;;5047504;28;20007;-68
2021/12/07 16:56:23;;;;;;;;;;;;;;;;;;5063386;28;19971;-68
2021/12/07 16:58:49;;;;;;;;;;;;;;;;;;5052388;28;20003;-68
2021/12/07 17:01:15;;;;;;;;;;;;;;;;;;5052053;28;19917;-68
2021/12/07 17:03:41;;;;;;;;;;;;;;;;;;5051803;28;19905;-68
2021/12/07 17:06:07;;;;;;;;;;;;;;;;;;5052077;28;19915;-68
2021/12/07 17:08:33;;;;;;;;;;;;;;;;;;5053649;28;19958;-69
2021/12/07 17:10:59;;;;;;;;;;;;;;;;;;5053825;28;19915;-70
2021/12/07 17:13:25;;;;;;;;;;;;;;;;;;5051712;28;19912;-68
2021/12/07 17:15:53;;;;;;;;;;;;;;;;;;5053147;28;19912;-68
2021/12/07 17:18:19;;;;;;;;;;;;;;;;;;5053162;28;20572;-68
2021/12/07 17:20:46;;;;;;;;;;;;;;;;;;5052200;28;19904;-68
2021/12/07 17:23:12;;;;;;;;;;;;;;;;;;5046938;28;19905;-67
2021/12/07 17:25:38;;;;;;;;;;;;;;;;;;5031984;28;19924;-68
2021/12/07 17:28:04;;;;;;;;;;;;;;;;;;5031711;28;19999;-68
2021/12/07 17:30:30;;;;;;;;;;;;;;;;;;5032166;28;19905;-68
2021/12/07 17:32:56;;;;;;;;;;;;;;;;;;5033089;28;19963;-68
2021/12/07 17:35:22;;;;;;;;;;;;;;;;;;5033467;28;19909;-69
2021/12/07 17:37:48;;;;;;;;;;;;;;;;;;5040102;28;19913;-68
2021/12/07 17:40:13;;;;;;;;;;;;;;;;;;5042144;28;19909;-69
2021/12/07 17:42:39;;;;;;;;;;;;;;;;;;5044619;28;19913;-68
2021/12/07 17:45:05;;;;;;;;;;;;;;;;;;5039457;28;20008;-68
2021/12/07 17:47:31;;;;;;;;;;;;;;;;;;5061205;28;20356;-68
2021/12/07 17:50:00;;;;;;;;;;;;;;;;;;5047217;28;19950;-68
2021/12/07 17:52:26;;;;;;;;;;;;;;;;;;5047608;28;20356;-70
2021/12/07 17:54:51;;;;;;;;;;;;;;;;;;5048083;28;20038;-68
2021/12/07 17:57:17;;;;;;;;;;;;;;;;;;5057071;28;19935;-67
2021/12/07 17:59:43;;;;;;;;;;;;;;;;;;5046864;28;19912;-68
2021/12/07 18:02:09;;;;;;;;;;;;;;;;;;4351637;28;9999930;-67
2021/12/07 18:04:35;;;;;;;;;;;;;;;;;;5047413;28;19943;-67
2021/12/07 18:07:01;;;;;;;;;;;;;;;;;;5042651;28;19963;-68
2021/12/07 18:09:27;;;;;;;;;;;;;;;;;;5046969;28;20372;-68
2021/12/07 18:11:53;;;;;;;;;;;;;;;;;;5046305;28;19917;-66
2021/12/07 18:14:20;;;;;;;;;;;;;;;;;;5032902;28;19909;-66
2021/12/07 18:16:46;;;;;;;;;;;;;;;;;;5041542;28;19909;-67
2021/12/07 18:19:15;;;;;;;;;;;;;;;;;;5040953;28;19913;-68
2021/12/07 18:21:44;;;;;;;;;;;;;;;;;;5048927;28;19916;-67
2021/12/07 18:24:10;;;;;;;;;;;;;;;;;;5060352;28;20236;-67